Time;durP1;ratioP1;P1;durP2;ratioP2;P2;SDS_P1;SDS_P2;PMS_P1;PMS_P2;Temp;Humidity;BMP_temperature;BMP_pressure;BME280_temperature;BME280_humidity;BME280_pressure;Samples;Min_cycle;Max_cycle;Signal;HPM_P1;HPM_P2
2022/03/05 00:01:12;;;;;;;114.90;91.25;;;;;;;-1.94;100.00;101122.56;5053966;28;20114;-83
2022/03/05 00:03:39;;;;;;;139.13;99.28;;;;;;;-1.87;100.00;101125.56;5052665;28;20118;-82
2022/03/05 00:06:07;;;;;;;112.85;90.63;;;;;;;-2.22;100.00;101126.41;5053831;28;20485;-80
2022/03/05 00:08:34;;;;;;;112.30;86.35;;;;;;;-2.11;100.00;101133.41;5053703;28;20075;-80
2022/03/05 00:11:01;;;;;;;116.22;88.40;;;;;;;-1.94;100.00;101137.34;5054136;28;20049;-80
2022/03/05 00:13:30;;;;;;;111.28;90.45;;;;;;;-1.82;100.00;101131.22;5054715;28;20389;-80
2022/03/05 00:15:57;;;;;;;112.38;98.10;;;;;;;-2.23;100.00;101136.94;5053943;28;20041;-80
2022/03/05 00:18:24;;;;;;;108.72;91.57;;;;;;;-2.22;100.00;101134.19;5053666;28;20448;-80
2022/03/05 00:20:53;;;;;;;107.68;92.65;;;;;;;-2.07;100.00;101138.28;5053410;28;20045;-80
2022/03/05 00:23:19;;;;;;;110.13;96.57;;;;;;;-2.16;100.00;101141.56;5053425;28;20417;-80
2022/03/05 00:25:47;;;;;;;163.75;116.22;;;;;;;-2.15;100.00;101135.44;5053846;28;20118;-82
2022/03/05 00:28:14;;;;;;;169.98;118.68;;;;;;;-2.21;100.00;101138.47;5053712;28;20067;-82
2022/03/05 00:30:42;;;;;;;156.48;112.90;;;;;;;-2.15;100.00;101131.97;5053631;28;20076;-80
2022/03/05 00:33:09;;;;;;;157.13;112.95;;;;;;;-2.21;100.00;101135.03;5053747;28;20049;-80
2022/03/05 00:35:36;;;;;;;131.15;98.65;;;;;;;-2.32;100.00;101136.66;5053552;28;20053;-82
2022/03/05 00:38:03;;;;;;;132.95;102.18;;;;;;;-2.37;100.00;101135.31;5053457;28;20057;-82
2022/03/05 00:40:30;;;;;;;132.90;96.60;;;;;;;-2.69;100.00;101130.69;5053568;28;20049;-80
2022/03/05 00:42:57;;;;;;;121.50;95.88;;;;;;;-2.66;100.00;101132.22;5053679;28;20375;-80
2022/03/05 00:45:24;;;;;;;136.20;103.93;;;;;;;-2.56;100.00;101125.44;5053716;28;20049;-83
2022/03/05 00:47:52;;;;;;;125.55;99.65;;;;;;;-2.54;100.00;101132.19;5057731;28;20103;-80
2022/03/05 00:50:18;;;;;;;126.45;98.00;;;;;;;-2.46;100.00;101129.00;5057371;28;20049;-80
2022/03/05 00:52:45;;;;;;;121.45;98.28;;;;;;;-2.43;100.00;101126.19;5057448;28;20056;-81
2022/03/05 00:55:12;;;;;;;125.38;96.32;;;;;;;-2.74;100.00;101114.59;5057281;28;20053;-80
2022/03/05 00:57:40;;;;;;;122.88;90.30;;;;;;;-2.82;100.00;101120.31;5057448;28;20119;-81
2022/03/05 01:00:08;;;;;;;119.75;88.75;;;;;;;-2.73;100.00;101121.44;5057159;28;20452;-80
2022/03/05 01:02:35;;;;;;;122.10;100.32;;;;;;;-2.53;100.00;101120.00;5057305;28;20049;-81
2022/03/05 01:05:04;;;;;;;131.23;98.57;;;;;;;-2.37;100.00;101111.91;5055681;28;20052;-80
2022/03/05 01:07:30;;;;;;;123.97;92.82;;;;;;;-2.62;100.00;101118.91;5057332;28;20147;-81
2022/03/05 01:09:57;;;;;;;131.57;97.65;;;;;;;-2.33;100.00;101114.19;5057028;28;20485;-80
2022/03/05 01:12:24;;;;;;;128.10;99.60;;;;;;;-2.43;100.00;101117.56;5056971;28;20053;-81
2022/03/05 01:14:51;;;;;;;142.32;104.57;;;;;;;-2.46;100.00;101123.00;5056853;28;20539;-80
2022/03/05 01:17:19;;;;;;;137.68;101.32;;;;;;;-2.67;100.00;101122.75;5057274;28;20056;-80
2022/03/05 01:19:46;;;;;;;133.63;98.57;;;;;;;-2.63;100.00;101121.59;5057145;28;20041;-80
2022/03/05 01:22:14;;;;;;;125.82;100.75;;;;;;;-2.56;100.00;101126.25;5057012;28;20052;-82
2022/03/05 01:24:41;;;;;;;141.23;103.78;;;;;;;-2.62;100.00;101126.69;5057158;28;20110;-80
2022/03/05 01:27:08;;;;;;;153.13;109.30;;;;;;;-2.90;100.00;101127.84;5057879;28;20111;-81
2022/03/05 01:29:35;;;;;;;129.85;101.80;;;;;;;-2.96;100.00;101130.06;5056958;28;20094;-80
2022/03/05 01:32:01;;;;;;;119.05;95.13;;;;;;;-2.84;100.00;101137.00;5056874;28;20049;-82
2022/03/05 01:34:28;;;;;;;120.65;92.65;;;;;;;-2.86;100.00;101129.28;5056578;28;20057;-83
2022/03/05 01:36:55;;;;;;;128.70;95.97;;;;;;;-2.98;100.00;101131.94;5056814;28;20045;-80
2022/03/05 01:39:24;;;;;;;124.97;97.82;;;;;;;-2.89;100.00;101132.09;5056769;28;20045;-80
2022/03/05 01:41:54;;;;;;;109.15;90.88;;;;;;;-2.84;100.00;101129.19;5056393;28;20110;-83
2022/03/05 01:44:22;;;;;;;113.72;91.25;;;;;;;-2.79;100.00;101127.06;5056426;28;20056;-80
2022/03/05 01:46:49;;;;;;;109.18;92.90;;;;;;;-2.94;100.00;101131.59;5056733;28;20045;-80
2022/03/05 01:49:17;;;;;;;116.40;93.60;;;;;;;-2.94;100.00;101134.19;5056608;28;20052;-81
2022/03/05 01:51:44;;;;;;;123.18;100.30;;;;;;;-3.29;100.00;101129.69;5056445;28;20053;-81
2022/03/05 01:54:12;;;;;;;119.72;97.00;;;;;;;-2.82;100.00;101135.09;5056201;28;20056;-80
2022/03/05 01:56:41;;;;;;;135.38;100.53;;;;;;;-2.82;100.00;101132.50;5056136;28;20102;-83
2022/03/05 01:59:08;;;;;;;116.32;94.75;;;;;;;-3.24;100.00;101127.63;5056399;28;20057;-81
2022/03/05 02:01:35;;;;;;;133.95;101.82;;;;;;;-3.15;100.00;101130.50;5056379;28;20045;-79
2022/03/05 02:04:02;;;;;;;117.05;90.68;;;;;;;-3.22;100.00;101135.28;5055015;28;20557;-82
2022/03/05 02:06:28;;;;;;;112.72;85.75;;;;;;;-3.07;100.00;101133.41;5056039;28;20122;-80
2022/03/05 02:08:57;;;;;;;122.45;90.63;;;;;;;-3.13;100.00;101134.66;5056197;28;20107;-81
2022/03/05 02:11:24;;;;;;;140.48;96.18;;;;;;;-3.10;100.00;101134.44;5056250;28;20056;-81
2022/03/05 02:13:53;;;;;;;116.68;89.53;;;;;;;-3.50;100.00;101128.59;5055739;28;20053;-81
2022/03/05 02:16:20;;;;;;;120.28;92.18;;;;;;;-3.38;100.00;101139.91;5056046;28;20087;-82
2022/03/05 02:18:47;;;;;;;120.65;93.72;;;;;;;-3.60;100.00;101130.13;5055723;28;20549;-80
2022/03/05 02:21:16;;;;;;;124.38;105.38;;;;;;;-3.22;100.00;101132.69;5055659;28;20472;-80
2022/03/05 02:23:44;;;;;;;123.63;97.60;;;;;;;-3.39;100.00;101133.03;5055753;28;20052;-79
2022/03/05 02:26:11;;;;;;;112.63;90.68;;;;;;;-3.86;100.00;101130.13;5056492;28;20406;-81
2022/03/05 02:28:38;;;;;;;126.60;94.53;;;;;;;-3.58;100.00;101126.50;5055596;28;20061;-81
2022/03/05 02:31:05;;;;;;;130.90;94.90;;;;;;;-3.36;100.00;101130.22;5055600;28;20110;-80
2022/03/05 02:33:32;;;;;;;121.35;94.47;;;;;;;-3.43;100.00;101131.59;5055421;28;20440;-80
2022/03/05 02:35:59;;;;;;;133.30;94.82;;;;;;;-3.28;100.00;101122.72;5055627;28;20126;-81
2022/03/05 02:38:28;;;;;;;135.25;95.55;;;;;;;-3.96;100.00;101113.53;5055289;28;20555;-81
2022/03/05 02:40:55;;;;;;;132.52;97.35;;;;;;;-3.61;100.00;101116.31;5055399;28;20386;-80
2022/03/05 02:43:22;;;;;;;140.27;102.15;;;;;;;-3.57;100.00;101120.38;5055496;28;20476;-81
2022/03/05 02:45:49;;;;;;;162.63;110.93;;;;;;;-3.47;100.00;101125.78;5055621;28;20462;-81
2022/03/05 02:48:18;;;;;;;158.32;111.47;;;;;;;-3.73;100.00;101127.53;5055193;28;20466;-80
2022/03/05 02:50:46;;;;;;;143.05;105.00;;;;;;;-4.12;100.00;101129.25;5055385;28;20118;-82
2022/03/05 02:53:13;;;;;;;144.25;102.20;;;;;;;-3.79;100.00;101131.38;5055400;28;20056;-80
2022/03/05 02:55:42;;;;;;;128.32;99.72;;;;;;;-3.47;100.00;101137.00;5055198;28;20056;-81
2022/03/05 02:58:08;;;;;;;121.38;94.43;;;;;;;-3.58;100.00;101130.88;5054895;28;20462;-83
2022/03/05 03:06:34;;;;;;;113.60;89.47;;;;;;;-3.54;100.00;101150.47;5033488;28;20132;-80
2022/03/05 03:09:01;;;;;;;121.13;106.35;;;;;;;-3.32;100.00;101149.88;5034724;28;20053;-80
2022/03/05 03:11:29;;;;;;;120.47;99.95;;;;;;;-3.23;100.00;101152.66;5034937;28;20485;-80
2022/03/05 03:13:56;;;;;;;115.50;99.68;;;;;;;-3.01;100.00;101157.19;5035166;28;20130;-80
2022/03/05 03:16:23;;;;;;;117.43;101.60;;;;;;;-3.00;100.00;101156.25;5034927;28;20476;-79
2022/03/05 03:18:50;;;;;;;121.00;97.32;;;;;;;-2.91;100.00;101162.56;5034971;28;20053;-82
2022/03/05 03:21:17;;;;;;;103.10;88.57;;;;;;;-3.28;100.00;101157.34;5034727;28;20103;-79
2022/03/05 03:23:44;;;;;;;98.93;84.75;;;;;;;-3.66;100.00;101174.69;5034604;28;20449;-80
2022/03/05 03:26:10;;;;;;;97.80;82.05;;;;;;;-3.33;100.00;101168.97;5034876;28;20060;-82
2022/03/05 03:28:38;;;;;;;107.55;83.85;;;;;;;-3.17;100.00;101169.59;5034768;28;20061;-81
2022/03/05 03:31:05;;;;;;;105.10;87.78;;;;;;;-3.19;100.00;101174.06;5034593;28;20468;-80
2022/03/05 03:33:32;;;;;;;107.50;91.10;;;;;;;-3.27;100.00;101176.34;5034546;28;20115;-82
2022/03/05 03:35:59;;;;;;;112.68;93.40;;;;;;;-3.26;100.00;101180.63;5034765;28;20054;-80
2022/03/05 03:38:25;;;;;;;103.82;87.32;;;;;;;-3.24;100.00;101181.34;5034403;28;20049;-80
2022/03/05 03:40:52;;;;;;;106.95;89.20;;;;;;;-3.60;100.00;101187.25;5034215;28;20119;-80
2022/03/05 03:43:19;;;;;;;100.43;85.15;;;;;;;-3.57;100.00;101187.03;5034172;28;20505;-80
2022/03/05 03:45:47;;;;;;;99.57;80.45;;;;;;;-3.39;100.00;101188.41;5034209;28;20053;-80
2022/03/05 03:48:14;;;;;;;109.20;92.60;;;;;;;-3.29;100.00;101186.84;5034285;28;20481;-80
2022/03/05 03:50:40;;;;;;;111.65;88.82;;;;;;;-3.19;100.00;101186.22;5034420;28;20064;-80
2022/03/05 03:53:07;;;;;;;104.15;88.18;;;;;;;-3.19;100.00;101187.06;5034416;28;20061;-82
2022/03/05 03:55:34;;;;;;;100.65;84.38;;;;;;;-3.16;100.00;101184.25;5033907;28;20490;-80
2022/03/05 03:58:01;;;;;;;98.57;80.60;;;;;;;-3.23;100.00;101183.84;5034124;28;20103;-80
2022/03/05 04:00:27;;;;;;;112.53;88.93;;;;;;;-3.11;100.00;101196.94;5034208;28;20053;-80
2022/03/05 04:02:55;;;;;;;108.53;91.22;;;;;;;-3.47;100.00;101199.31;5033807;28;20119;-82
2022/03/05 04:05:22;;;;;;;108.13;87.88;;;;;;;-3.10;100.00;101198.59;5029424;28;20058;-80
2022/03/05 04:10:33;;;;;;;109.53;88.60;;;;;;;-3.57;100.00;101207.81;5014557;28;20080;-80
2022/03/05 04:13:00;;;;;;;107.88;85.68;;;;;;;-3.69;100.00;101207.72;5014230;28;20058;-80
2022/03/05 04:15:27;;;;;;;102.88;85.18;;;;;;;-3.83;100.00;101210.41;5014224;28;20053;-80
2022/03/05 04:17:55;;;;;;;117.30;89.68;;;;;;;-3.70;100.00;101200.84;5014270;28;20074;-80
2022/03/05 04:20:22;;;;;;;103.82;84.13;;;;;;;-3.88;100.00;101215.03;5013202;28;20057;-82
2022/03/05 04:22:48;;;;;;;113.43;85.22;;;;;;;-3.92;100.00;101213.59;5013897;28;20061;-81
2022/03/05 04:25:15;;;;;;;106.75;86.82;;;;;;;-3.77;100.00;101216.94;5014112;28;20053;-81
2022/03/05 04:27:42;;;;;;;119.60;91.85;;;;;;;-3.58;100.00;101212.19;5014362;28;20104;-80
2022/03/05 04:30:10;;;;;;;109.80;86.25;;;;;;;-3.97;100.00;101207.88;5013645;28;20252;-80
2022/03/05 04:32:38;;;;;;;108.75;87.47;;;;;;;-3.89;100.00;101213.41;5014100;28;20061;-80
2022/03/05 04:35:08;;;;;;;110.85;88.75;;;;;;;-3.53;100.00;101209.31;5014252;28;20065;-82
2022/03/05 04:37:35;;;;;;;111.38;90.20;;;;;;;-3.44;100.00;101211.28;5013819;28;20433;-79
2022/03/05 04:40:02;;;;;;;107.30;85.43;;;;;;;-3.47;100.00;101227.91;5013774;28;20050;-82
2022/03/05 04:42:28;;;;;;;96.40;79.25;;;;;;;-3.38;100.00;101228.22;5013968;28;20061;-81
2022/03/05 04:44:55;;;;;;;100.80;81.70;;;;;;;-3.56;100.00;101227.69;5013732;28;20062;-82
2022/03/05 04:47:22;;;;;;;96.38;78.18;;;;;;;-3.65;100.00;101231.72;5013759;28;20046;-82
2022/03/05 04:49:49;;;;;;;92.35;74.72;;;;;;;-3.80;100.00;101235.31;5013775;28;20046;-79
2022/03/05 04:52:17;;;;;;;96.53;78.03;;;;;;;-3.66;100.00;101245.66;5013958;28;20137;-80
2022/03/05 04:54:44;;;;;;;109.57;82.30;;;;;;;-3.94;100.00;101246.59;5013906;28;20131;-80
2022/03/05 04:57:11;;;;;;;131.93;95.70;;;;;;;-3.78;100.00;101247.28;5013627;28;20046;-80
2022/03/05 04:59:38;;;;;;;113.82;87.63;;;;;;;-3.75;100.00;101251.41;5013607;28;20556;-80
2022/03/05 05:02:04;;;;;;;110.32;84.65;;;;;;;-3.89;100.00;101243.72;5013485;28;20060;-80
2022/03/05 05:04:31;;;;;;;110.60;84.50;;;;;;;-3.91;100.00;101254.19;5014223;28;20053;-80
2022/03/05 05:06:58;;;;;;;109.75;84.03;;;;;;;-3.83;100.00;101251.94;5013582;28;20054;-82
2022/03/05 05:09:26;;;;;;;110.30;85.80;;;;;;;-3.47;100.00;101250.44;5013506;28;20050;-80
2022/03/05 05:11:53;;;;;;;123.78;94.05;;;;;;;-3.63;100.00;101257.56;5013356;28;20394;-82
2022/03/05 05:14:20;;;;;;;123.00;95.35;;;;;;;-3.57;100.00;101258.03;5013579;28;20457;-81
2022/03/05 05:16:46;;;;;;;119.25;89.85;;;;;;;-3.41;100.00;101259.59;5013286;28;20045;-83
2022/03/05 05:19:25;;;;;;;116.20;87.32;;;;;;;-3.32;100.00;101259.81;5013552;28;20054;-80
2022/03/05 05:21:52;;;;;;;119.53;94.82;;;;;;;-3.48;100.00;101264.34;5013356;28;20136;-81
2022/03/05 05:24:19;;;;;;;122.90;93.28;;;;;;;-3.39;100.00;101260.31;5013664;28;20050;-81
2022/03/05 05:26:47;;;;;;;110.47;84.63;;;;;;;-3.40;100.00;101263.84;5013409;28;20053;-80
2022/03/05 05:29:14;;;;;;;111.20;86.60;;;;;;;-3.36;100.00;101268.75;5013700;28;20104;-79
2022/03/05 05:31:41;;;;;;;130.07;97.25;;;;;;;-3.41;100.00;101276.00;5013842;28;20045;-80
2022/03/05 05:34:08;;;;;;;129.48;99.10;;;;;;;-3.20;100.00;101275.53;5016919;28;20050;-79
2022/03/05 05:36:36;;;;;;;156.80;113.03;;;;;;;-3.43;100.00;101280.47;5017227;28;20465;-80
2022/03/05 05:39:03;;;;;;;151.23;109.53;;;;;;;-3.49;100.00;101280.88;5016444;28;20065;-80
2022/03/05 05:41:31;;;;;;;135.88;98.75;;;;;;;-3.35;100.00;101287.75;5016563;28;20486;-80
2022/03/05 05:43:59;;;;;;;135.60;96.88;;;;;;;-2.90;100.00;101291.63;5016631;28;20050;-81
2022/03/05 05:46:26;;;;;;;124.30;94.97;;;;;;;-2.82;100.00;101298.88;5016937;28;20049;-80
2022/03/05 05:48:52;;;;;;;125.65;97.57;;;;;;;-2.85;100.00;101301.69;5016584;28;20046;-80
2022/03/05 05:51:19;;;;;;;153.40;117.25;;;;;;;-2.81;100.00;101309.19;5016847;28;20050;-80
2022/03/05 05:53:46;;;;;;;124.90;97.70;;;;;;;-2.47;100.00;101306.88;5016739;28;20120;-79
2022/03/05 05:56:12;;;;;;;105.93;87.30;;;;;;;-2.63;100.00;101311.44;5016527;28;20104;-80
2022/03/05 05:58:39;;;;;;;102.38;87.20;;;;;;;-2.48;100.00;101314.75;5016439;28;20104;-80
2022/03/05 06:01:08;;;;;;;108.57;94.65;;;;;;;-2.29;100.00;101314.34;5016446;28;20057;-80
2022/03/05 06:03:35;;;;;;;111.20;92.30;;;;;;;-2.07;100.00;101319.66;5016447;28;20112;-79
2022/03/05 06:06:01;;;;;;;96.78;83.55;;;;;;;-1.99;100.00;101317.34;5016080;28;20054;-80
2022/03/05 06:08:28;;;;;;;124.57;97.97;;;;;;;-1.99;100.00;101321.75;5016478;28;20060;-80
2022/03/05 06:10:57;;;;;;;120.68;97.50;;;;;;;-1.70;100.00;101317.84;5016536;28;20046;-80
2022/03/05 06:13:23;;;;;;;128.95;96.68;;;;;;;-1.69;100.00;101323.91;5016276;28;20597;-80
2022/03/05 06:15:50;;;;;;;121.03;96.28;;;;;;;-1.53;100.00;101324.44;5016528;28;20139;-80
2022/03/05 06:18:18;;;;;;;104.20;88.35;;;;;;;-1.45;100.00;101331.69;5015978;28;20478;-80
2022/03/05 06:20:45;;;;;;;95.82;84.55;;;;;;;-1.43;100.00;101324.59;5016179;28;20132;-81
2022/03/05 06:23:12;;;;;;;99.00;84.10;;;;;;;-1.26;100.00;101324.16;5015959;28;20053;-80
2022/03/05 06:25:39;;;;;;;106.70;88.68;;;;;;;-1.38;100.00;101322.47;5016140;28;20108;-80
2022/03/05 06:28:06;;;;;;;115.30;93.68;;;;;;;-1.19;100.00;101324.53;5016226;28;20115;-80
2022/03/05 06:30:33;;;;;;;129.65;94.68;;;;;;;-1.04;100.00;101326.00;5015764;28;20054;-79
2022/03/05 06:32:59;;;;;;;133.75;97.35;;;;;;;-0.83;100.00;101327.94;5016049;28;20046;-80
2022/03/05 06:35:28;;;;;;;122.45;97.28;;;;;;;-0.58;100.00;101326.88;5015848;28;20053;-82
2022/03/05 06:37:55;;;;;;;132.80;98.50;;;;;;;-0.66;100.00;101335.31;5015663;28;20054;-81
2022/03/05 06:40:21;;;;;;;135.40;99.53;;;;;;;-0.57;100.00;101331.16;5015721;28;20050;-82
2022/03/05 06:42:48;;;;;;;126.43;95.22;;;;;;;-0.63;100.00;101335.06;5015250;28;20564;-82
2022/03/05 06:45:15;;;;;;;115.30;94.68;;;;;;;-0.32;100.00;101330.91;5015555;28;20053;-81
2022/03/05 06:47:42;;;;;;;112.22;94.05;;;;;;;-0.19;100.00;101333.38;5015653;28;20060;-80
2022/03/05 06:50:11;;;;;;;106.07;87.85;;;;;;;-0.07;100.00;101339.41;5016006;28;20050;-79
2022/03/05 06:52:39;;;;;;;100.65;87.93;;;;;;;0.24;100.00;101350.84;5015615;28;20108;-83
2022/03/05 06:55:07;;;;;;;104.40;90.25;;;;;;;0.23;100.00;101347.41;5015581;28;20128;-79
2022/03/05 06:57:34;;;;;;;99.45;83.43;;;;;;;0.37;100.00;101351.53;5015351;28;20046;-79
2022/03/05 07:00:01;;;;;;;96.07;83.50;;;;;;;0.56;100.00;101345.63;5015629;28;20111;-82
2022/03/05 07:02:27;;;;;;;99.93;81.70;;;;;;;0.82;100.00;101347.91;5015257;28;20474;-81
2022/03/05 07:04:54;;;;;;;100.97;87.80;;;;;;;0.90;100.00;101351.53;5015254;28;20108;-80
2022/03/05 07:07:21;;;;;;;94.97;84.78;;;;;;;0.62;100.00;101349.53;5015171;28;20050;-80
2022/03/05 07:09:49;;;;;;;92.50;80.57;;;;;;;0.86;100.00;101350.13;5015441;28;20112;-82
2022/03/05 07:12:16;;;;;;;92.00;76.72;;;;;;;0.47;100.00;101349.00;5015413;28;20077;-79
2022/03/05 07:14:44;;;;;;;99.35;82.30;;;;;;;1.22;100.00;101355.03;5015297;28;20112;-82
2022/03/05 07:17:11;;;;;;;92.85;83.15;;;;;;;1.06;100.00;101361.56;5015979;28;20131;-79
2022/03/05 07:19:38;;;;;;;87.90;78.10;;;;;;;1.14;100.00;101360.91;5015238;28;20127;-80
2022/03/05 07:22:05;;;;;;;86.38;76.43;;;;;;;1.22;100.00;101362.88;5015314;28;20050;-80
2022/03/05 07:24:31;;;;;;;229.57;117.68;;;;;;;1.40;100.00;101353.47;5015154;28;20054;-82
2022/03/05 07:27:00;;;;;;;94.63;84.30;;;;;;;1.47;100.00;101344.13;5014894;28;20058;-81
2022/03/05 07:29:27;;;;;;;89.80;80.00;;;;;;;1.72;100.00;101352.50;5015515;28;20461;-80
2022/03/05 07:31:53;;;;;;;89.15;77.68;;;;;;;1.59;100.00;101353.53;5015180;28;20115;-80
2022/03/05 07:34:20;;;;;;;91.47;79.70;;;;;;;2.00;100.00;101358.81;5014884;28;20548;-79
2022/03/05 07:36:47;;;;;;;93.75;82.53;;;;;;;2.36;100.00;101359.09;5014740;28;20046;-79
2022/03/05 07:39:14;;;;;;;91.50;81.57;;;;;;;2.21;100.00;101359.53;5014675;28;20053;-80
2022/03/05 07:41:41;;;;;;;98.50;88.07;;;;;;;2.18;100.00;101366.81;5015227;28;20461;-80
2022/03/05 07:44:09;;;;;;;94.88;84.95;;;;;;;2.26;100.00;101367.78;5014565;28;20073;-81
2022/03/05 07:46:37;;;;;;;94.93;84.63;;;;;;;2.20;100.00;101370.13;5014746;28;20544;-82
2022/03/05 07:49:04;;;;;;;99.05;88.15;;;;;;;2.18;100.00;101374.66;5014496;28;20058;-82
2022/03/05 07:51:31;;;;;;;110.43;92.95;;;;;;;2.25;100.00;101365.31;5014549;28;20410;-79
2022/03/05 07:53:58;;;;;;;102.78;91.95;;;;;;;2.27;100.00;101369.47;5014469;28;20478;-79
2022/03/05 07:56:24;;;;;;;101.40;90.63;;;;;;;2.43;100.00;101375.97;5014182;28;20053;-80
2022/03/05 07:58:51;;;;;;;102.40;91.35;;;;;;;2.51;100.00;101382.19;5014442;28;20054;-80
2022/03/05 08:01:19;;;;;;;103.70;93.10;;;;;;;2.49;100.00;101375.44;5014514;28;20046;-81
2022/03/05 08:03:46;;;;;;;108.22;97.13;;;;;;;2.46;100.00;101378.31;5014201;28;20115;-79
2022/03/05 08:06:13;;;;;;;104.93;93.60;;;;;;;2.67;100.00;101384.25;5014115;28;20120;-79
2022/03/05 08:08:39;;;;;;;109.40;98.20;;;;;;;2.67;100.00;101376.41;5014438;28;20060;-80
2022/03/05 08:11:07;;;;;;;105.38;94.47;;;;;;;2.95;100.00;101379.13;5014550;28;20046;-79
2022/03/05 08:13:34;;;;;;;105.22;94.45;;;;;;;2.88;100.00;101380.69;5014510;28;20045;-81
2022/03/05 08:16:00;;;;;;;101.95;91.28;;;;;;;3.05;100.00;101392.25;5014130;28;20046;-82
2022/03/05 08:18:29;;;;;;;97.53;87.75;;;;;;;3.21;100.00;101382.84;5014421;28;20058;-79
2022/03/05 08:20:55;;;;;;;100.55;89.97;;;;;;;3.40;100.00;101383.75;5014417;28;20449;-79
2022/03/05 08:23:22;;;;;;;94.18;84.65;;;;;;;3.53;100.00;101376.38;5013992;28;20453;-80
2022/03/05 08:25:49;;;;;;;94.20;84.38;;;;;;;3.41;100.00;101383.59;5014227;28;20474;-79
2022/03/05 08:28:17;;;;;;;95.57;86.13;;;;;;;3.47;100.00;101370.88;5014491;28;20422;-79
2022/03/05 08:30:44;;;;;;;99.50;89.75;;;;;;;3.84;100.00;101370.84;5013912;28;20096;-79
2022/03/05 08:33:11;;;;;;;97.32;87.80;;;;;;;3.77;100.00;101378.50;5014306;28;20219;-79
2022/03/05 08:35:39;;;;;;;91.00;81.85;;;;;;;3.73;100.00;101376.31;5014142;28;20053;-79
2022/03/05 08:38:06;;;;;;;92.10;82.82;;;;;;;3.55;100.00;101384.94;5013998;28;20082;-80
2022/03/05 08:40:33;;;;;;;93.28;83.70;;;;;;;3.60;100.00;101384.50;5013892;28;20543;-80
2022/03/05 08:43:00;;;;;;;99.32;88.70;;;;;;;3.96;100.00;101385.44;5014196;28;20065;-80
2022/03/05 08:45:27;;;;;;;95.82;86.20;;;;;;;3.92;100.00;101378.84;5014198;28;20045;-80
2022/03/05 08:47:53;;;;;;;100.82;90.60;;;;;;;4.45;100.00;101372.84;5014163;28;20132;-83
2022/03/05 08:50:20;;;;;;;94.20;84.97;;;;;;;4.47;100.00;101373.50;5014066;28;20050;-81
2022/03/05 08:52:48;;;;;;;90.13;80.75;;;;;;;4.48;100.00;101379.59;5014348;28;20105;-82
2022/03/05 08:55:17;;;;;;;88.25;78.97;;;;;;;4.44;100.00;101372.97;5014245;28;20084;-80
2022/03/05 08:57:45;;;;;;;84.32;75.57;;;;;;;4.39;100.00;101375.22;5013875;28;20566;-79
2022/03/05 09:00:15;;;;;;;87.15;78.40;;;;;;;4.47;100.00;101375.31;5014288;28;20124;-81
2022/03/05 09:02:42;;;;;;;85.65;77.05;;;;;;;4.60;100.00;101367.91;5014101;28;20132;-79
2022/03/05 09:05:10;;;;;;;87.75;78.97;;;;;;;6.19;100.00;101367.50;5006762;28;20058;-81
2022/03/05 09:07:37;;;;;;;92.00;83.40;;;;;;;6.80;100.00;101369.88;5028402;28;20046;-80
2022/03/05 09:10:07;;;;;;;80.95;73.40;;;;;;;7.02;100.00;101368.38;5033541;28;20053;-80
2022/03/05 09:12:34;;;;;;;81.07;72.97;;;;;;;7.39;100.00;101364.38;5037416;28;20042;-81
2022/03/05 09:15:01;;;;;;;76.97;68.97;;;;;;;8.01;100.00;101356.53;5037468;28;20050;-80
2022/03/05 09:17:27;;;;;;;73.05;65.90;;;;;;;8.33;100.00;101360.00;5035302;28;20050;-80
2022/03/05 09:19:54;;;;;;;72.63;65.15;;;;;;;8.36;100.00;101344.59;5017382;28;20484;-82
2022/03/05 09:22:21;;;;;;;84.38;69.57;;;;;;;8.65;100.00;101343.91;5026416;28;20133;-78
2022/03/05 09:24:48;;;;;;;70.75;63.20;;;;;;;7.94;100.00;101345.81;5021343;28;20119;-84
2022/03/05 09:27:16;;;;;;;65.75;58.70;;;;;;;7.58;100.00;101348.94;5024023;28;20470;-80
2022/03/05 09:29:45;;;;;;;69.07;61.33;;;;;;;7.56;100.00;101345.66;5031504;28;20060;-83
2022/03/05 09:32:12;;;;;;;72.60;65.57;;;;;;;7.81;100.00;101348.19;5037392;28;20136;-80
2022/03/05 09:34:38;;;;;;;72.00;64.40;;;;;;;7.40;100.00;101352.81;5027533;28;20111;-80
2022/03/05 09:37:05;;;;;;;77.78;70.05;;;;;;;6.48;100.00;101355.69;5019722;28;20119;-82
2022/03/05 09:39:32;;;;;;;80.10;64.82;;;;;;;7.11;100.00;101356.84;5023915;28;20097;-80
2022/03/05 09:42:00;;;;;;;69.50;63.13;;;;;;;8.23;100.00;101350.47;5034539;28;20108;-79
2022/03/05 09:44:28;;;;;;;70.40;63.75;;;;;;;7.78;100.00;101345.91;5022994;28;20127;-80
2022/03/05 09:46:55;;;;;;;70.20;63.90;;;;;;;7.78;100.00;101336.16;5033876;28;20045;-81
2022/03/05 09:49:24;;;;;;;69.85;62.92;;;;;;;8.95;100.00;101334.19;5026504;28;20406;-80
2022/03/05 09:51:50;;;;;;;70.65;64.10;;;;;;;8.93;100.00;101338.88;5021384;28;20049;-80
2022/03/05 09:54:17;;;;;;;68.10;61.90;;;;;;;8.78;100.00;101337.19;5019861;28;20051;-80
2022/03/05 09:56:44;;;;;;;67.53;61.38;;;;;;;10.09;100.00;101340.00;5023165;28;20119;-78
2022/03/05 09:59:11;;;;;;;66.28;60.08;;;;;;;10.30;100.00;101351.69;5037048;28;20060;-81
2022/03/05 10:01:40;;;;;;;66.30;60.45;;;;;;;10.06;100.00;101339.56;5027122;28;20045;-82
2022/03/05 10:04:19;;;;;;;70.38;63.45;;;;;;;10.08;100.00;101340.19;5026015;28;20108;-83
2022/03/05 10:06:46;;;;;;;63.75;57.85;;;;;;;10.35;100.00;101340.47;5000626;28;20506;-80
2022/03/05 10:09:21;;;;;;;65.55;59.75;;;;;;;9.68;100.00;101346.84;4996156;28;20502;-80
2022/03/05 10:11:48;;;;;;;65.60;59.60;;;;;;;9.46;100.00;101349.41;4996993;28;20133;-80
2022/03/05 10:14:16;;;;;;;65.10;59.08;;;;;;;9.25;100.00;101346.66;4997324;28;20586;-80
2022/03/05 10:16:44;;;;;;;68.38;62.40;;;;;;;8.49;100.00;101351.97;4996758;28;20061;-80
2022/03/05 10:19:22;;;;;;;66.50;60.17;;;;;;;8.78;100.00;101348.59;4995690;28;20368;-80
2022/03/05 10:22:00;;;;;;;65.80;59.72;;;;;;;8.47;100.00;101351.31;4996788;28;20462;-82
2022/03/05 10:24:35;;;;;;;69.55;62.75;;;;;;;8.38;100.00;101341.75;4996947;28;20061;-78
2022/03/05 10:27:02;;;;;;;68.85;62.55;;;;;;;8.73;100.00;101343.00;4997169;28;20203;-80
2022/03/05 10:29:34;;;;;;;69.05;62.65;;;;;;;8.99;100.00;101341.81;4997048;28;20050;-80
2022/03/05 10:32:05;;;;;;;63.35;57.50;;;;;;;8.80;100.00;101337.81;4997396;28;20062;-82
2022/03/05 10:34:54;;;;;;;70.10;63.30;;;;;;;10.07;100.00;101338.53;4996041;28;20548;-80
2022/03/05 10:37:22;;;;;;;68.15;62.10;;;;;;;11.12;100.00;101337.88;4995267;28;20097;-79
2022/03/05 10:39:51;;;;;;;69.32;63.33;;;;;;;11.24;100.00;101335.50;4996285;28;20058;-79
2022/03/05 10:42:18;;;;;;;65.85;60.15;;;;;;;11.51;100.00;101340.97;4996421;28;20056;-77
2022/03/05 10:45:00;;;;;;;67.82;61.88;;;;;;;10.21;100.00;101340.34;4996677;28;20053;-82
2022/03/05 10:47:37;;;;;;;66.25;60.28;;;;;;;10.25;100.00;101335.47;4997109;28;20093;-82
2022/03/05 10:50:07;;;;;;;66.07;59.95;;;;;;;10.95;100.00;101340.03;4996592;28;20128;-80
2022/03/05 10:52:44;;;;;;;66.72;60.72;;;;;;;10.07;100.00;101346.50;4996657;28;20050;-79
2022/03/05 10:55:16;;;;;;;69.72;63.13;;;;;;;9.22;100.00;101331.94;4996298;28;20120;-80
2022/03/05 10:58:00;;;;;;;71.97;65.55;;;;;;;9.59;100.00;101339.00;4996909;28;20121;-80
2022/03/05 11:00:27;;;;;;;68.15;62.05;;;;;;;8.93;100.00;101332.75;4995986;28;20446;-80
2022/03/05 11:03:00;;;;;;;65.55;59.75;;;;;;;10.29;100.00;101326.16;4996387;28;20116;-80
2022/03/05 11:05:26;;;;;;;67.55;61.70;;;;;;;9.90;100.00;101329.16;5006336;28;20503;-80
2022/03/05 11:07:56;;;;;;;70.15;64.18;;;;;;;10.82;100.00;101323.13;5035399;28;20449;-81
2022/03/05 11:10:29;;;;;;;67.22;61.53;;;;;;;11.02;100.00;101317.97;5035177;28;20128;-80